Accueil
METAR-TAF:

METAR-TAF

Aéroports :

Aéroport d'Aurigny

Aurigny,

latitude: 49-43N, longitude: 002-12W, altitude: 71 m

Observation

Le bulletin a été fait il y a 9 heures et 41 minutes, à 17:20 UTC
Vent 7 kt de ouest/nord-ouest
Température 17°C
Humidité 88%
Pression 1017 hPa
Visibilité 10 km ou plus
Quelques nuages à une hauteur de 800 ft

METAR: EGJA 161720Z 29007KT 9999 FEW008 17/15 Q1017

Heure: 04:01 (03:01 UTC)

Prévision

Le bulletin a été fait il y a 12 heures et 59 minutes, à 14:02 UTC
Prévision valable du 16 à 15 UTC au 16 à 19 UTC
Vent 12 kt de ouest/nord-ouest
Visibilité 10 km ou plus
Nuages épars à une hauteur de 3000 ft

TAF: EGJA 161402Z 1615/1619 29012KT 9999 SCT030

Observations et prévisions météorologiques de plus de 4000 aéroports (messages METAR et TAF).

Les stations disponibles sont représentées par des disques jaunes et rouges sur la carte.

Passer la souris dessus pour voir le nom de la station.

Cliquer dessus pour voir les observations et prévisions météorologiques.

Pour changer de carte: cliquez sur les boutons verts avec une croix noire pour zoomer, sur le bouton vert avec un tiret pour effectuer un zoom arrière, ou sur les flèches vertes pour les cartes adjacentes.


METAR-TAF: